createdAt,value
2023-05-13T00:00:03.055Z,97537.38
2023-05-13T00:02:31.650Z,97532.06
2023-05-13T00:04:59.975Z,97532.06
2023-05-13T00:07:28.438Z,97532.06
2023-05-13T00:09:56.741Z,97533.06
2023-05-13T00:12:25.185Z,97537.38
2023-05-13T00:14:53.612Z,97531.25
2023-05-13T00:17:23.298Z,97529.41
2023-05-13T00:19:51.672Z,97523.25
2023-05-13T00:22:19.963Z,97525.09
2023-05-13T00:24:48.456Z,97527.59
2023-05-13T00:27:16.726Z,97529.41
2023-05-13T00:29:44.993Z,97525.94
2023-05-13T00:32:13.312Z,97525.09
2023-05-13T00:34:42.962Z,97523.44
2023-05-13T00:37:12.159Z,97532.41
2023-05-13T00:39:40.510Z,97532.22
2023-05-13T00:42:12.425Z,97539.41
2023-05-13T00:44:40.961Z,97530.56
2023-05-13T00:47:10.430Z,97539.41
2023-05-13T00:49:38.814Z,97536.75
2023-05-13T00:52:11.914Z,97538.56
2023-05-13T00:54:40.220Z,97539.56
2023-05-13T00:57:08.950Z,97544.06
2023-05-13T00:59:37.260Z,97541.41
2023-05-13T01:02:12.256Z,97539.75
2023-05-13T01:04:50.366Z,97539.75
2023-05-13T01:07:35.199Z,97543.38
2023-05-13T01:10:11.469Z,97537.25
2023-05-13T01:12:42.560Z,97544.06
2023-05-13T01:15:15.209Z,97531.59
2023-05-13T01:17:51.697Z,97545.72
2023-05-13T01:20:23.895Z,97543.88
2023-05-13T01:22:53.893Z,97547.41
2023-05-13T01:25:22.194Z,97551.03
2023-05-13T01:27:50.733Z,97540.56
2023-05-13T01:30:22.763Z,97536.75
2023-05-13T01:32:53.084Z,97544.91
2023-05-13T01:35:22.830Z,97539.75
2023-05-13T01:37:53.903Z,97552.22
2023-05-13T01:40:32.437Z,97547.06
2023-05-13T01:43:01.710Z,97547.06
2023-05-13T01:45:30.790Z,97550.72
2023-05-13T01:47:59.168Z,97550.56
2023-05-13T01:50:27.614Z,97557.72
2023-05-13T01:52:57.572Z,97547.06
2023-05-13T01:55:28.937Z,97550.56
2023-05-13T01:57:57.249Z,97547.91
2023-05-13T02:00:25.628Z,97542.75
2023-05-13T02:02:54.037Z,97545.41
2023-05-13T02:05:23.282Z,97546.38
2023-05-13T02:07:51.952Z,97545.56
2023-05-13T02:10:21.838Z,97547.38
2023-05-13T02:12:50.377Z,97546.38
2023-05-13T02:15:18.912Z,97540.41
2023-05-13T02:17:47.242Z,97546.53
2023-05-13T02:20:16.080Z,97544.88
2023-05-13T02:22:47.290Z,97546.72
2023-05-13T02:25:15.662Z,97552.22
2023-05-13T02:27:45.344Z,97545.91
2023-05-13T02:30:14.216Z,97549.38
2023-05-13T02:32:43.986Z,97549.38
2023-05-13T02:35:12.436Z,97551.06
2023-05-13T02:37:40.797Z,97546.53
2023-05-13T02:40:10.799Z,97554.38
2023-05-13T02:42:39.115Z,97557.03
2023-05-13T02:45:10.809Z,97555.22
2023-05-13T02:47:39.336Z,97557.72
2023-05-13T02:50:10.138Z,97557.72
2023-05-13T02:52:39.225Z,97554.19
2023-05-13T02:55:10.275Z,97561.38
2023-05-13T02:57:38.654Z,97564.84
2023-05-13T03:00:11.137Z,97560.53
2023-05-13T03:02:40.156Z,97563.19
2023-05-13T03:05:09.731Z,97559.69
2023-05-13T03:07:38.027Z,97557.19
2023-05-13T03:10:07.775Z,97562.53
2023-05-13T03:12:36.216Z,97560.88
2023-05-13T03:15:04.879Z,97565.34
2023-05-13T03:17:34.587Z,97561.03
2023-05-13T03:20:03.488Z,97565.69
2023-05-13T03:22:31.751Z,97565.69
2023-05-13T03:25:00.227Z,97563.19
2023-05-13T03:27:28.522Z,97567.69
2023-05-13T03:29:56.801Z,97563.34
2023-05-13T03:32:30.489Z,97563.53
2023-05-13T03:35:01.618Z,97564.53
2023-05-13T03:37:29.902Z,97570.00
2023-05-13T03:39:58.302Z,97569.16
2023-05-13T03:42:26.693Z,97571.84
2023-05-13T03:44:57.046Z,97566.69
2023-05-13T03:47:28.155Z,97576.19
2023-05-13T03:49:56.567Z,97569.50
2023-05-13T03:52:26.447Z,97576.50
2023-05-13T03:54:54.767Z,97573.16
2023-05-13T03:57:23.057Z,97576.84
2023-05-13T03:59:51.364Z,97577.81
2023-05-13T04:02:21.785Z,97573.34
2023-05-13T04:04:50.142Z,97581.31
2023-05-13T04:07:18.492Z,97589.97
2023-05-13T04:09:48.199Z,97580.16
2023-05-13T04:12:18.150Z,97590.63
2023-05-13T04:14:49.358Z,97585.31
2023-05-13T04:17:19.723Z,97590.47
2023-05-13T04:19:48.041Z,97584.50
2023-05-13T04:22:16.341Z,97589.50
2023-05-13T04:24:44.672Z,97588.47
2023-05-13T04:27:14.382Z,97599.13
2023-05-13T04:29:42.692Z,97593.63
2023-05-13T04:32:11.081Z,97598.97
2023-05-13T04:34:39.523Z,97599.81
2023-05-13T04:37:08.101Z,97603.13
2023-05-13T04:39:36.388Z,97604.81
2023-05-13T04:42:05.007Z,97608.97
2023-05-13T04:44:35.104Z,97605.44
2023-05-13T04:47:03.446Z,97603.63
2023-05-13T04:49:31.752Z,97606.28
2023-05-13T04:52:05.323Z,97605.28
2023-05-13T04:54:35.432Z,97603.78
2023-05-13T04:57:03.969Z,97614.13
2023-05-13T04:59:32.332Z,97617.47
2023-05-13T05:02:02.484Z,97628.91
2023-05-13T05:04:30.971Z,97620.94
2023-05-13T05:07:04.111Z,97622.63
2023-05-13T05:09:32.369Z,97632.25
2023-05-13T05:12:03.554Z,97624.28
2023-05-13T05:14:31.836Z,97623.09
2023-05-13T05:17:04.620Z,97619.47
2023-05-13T05:19:33.116Z,97627.13
2023-05-13T05:22:04.370Z,97617.28
2023-05-13T05:24:32.651Z,97618.78
2023-05-13T05:27:01.030Z,97624.13
2023-05-13T05:29:32.332Z,97623.75
2023-05-13T05:32:05.889Z,97623.75
2023-05-13T05:34:34.343Z,97627.09
2023-05-13T05:37:02.624Z,97621.59
2023-05-13T05:39:30.924Z,97623.25
2023-05-13T05:42:05.065Z,97624.09
2023-05-13T05:44:36.475Z,97628.44
2023-05-13T05:47:06.797Z,97628.25
2023-05-13T05:49:35.113Z,97618.31
2023-05-13T05:52:03.449Z,97626.97
2023-05-13T05:54:37.863Z,97622.47
2023-05-13T05:57:06.871Z,97623.97
2023-05-13T05:59:35.179Z,97624.97
2023-05-13T06:02:05.130Z,97619.63
2023-05-13T06:04:33.519Z,97624.78
2023-05-13T06:07:01.914Z,97624.63
2023-05-13T06:09:30.370Z,97627.13
2023-05-13T06:11:58.667Z,97633.81
2023-05-13T06:14:27.122Z,97624.63
2023-05-13T06:16:56.068Z,97630.66
2023-05-13T06:19:25.796Z,97630.94
2023-05-13T06:21:54.124Z,97638.44
2023-05-13T06:24:22.504Z,97625.78
2023-05-13T06:26:50.764Z,97632.44
2023-05-13T06:29:19.123Z,97631.28
2023-05-13T06:31:50.172Z,97630.13
2023-05-13T06:34:18.491Z,97626.09
2023-05-13T06:36:48.158Z,97625.41
2023-05-13T06:39:16.625Z,97634.56
2023-05-13T06:41:47.711Z,97635.06
2023-05-13T06:44:16.082Z,97630.88
2023-05-13T06:46:44.506Z,97630.72
2023-05-13T06:49:12.835Z,97634.22
2023-05-13T06:51:47.024Z,97636.53
2023-05-13T06:54:16.730Z,97632.84
2023-05-13T06:56:45.070Z,97634.00
2023-05-13T06:59:13.697Z,97646.31
2023-05-13T07:01:43.613Z,97646.81
2023-05-13T07:04:11.936Z,97646.66
2023-05-13T07:06:40.406Z,97648.81
2023-05-13T07:09:14.700Z,97648.63
2023-05-13T07:11:47.529Z,97648.28
2023-05-13T07:14:15.817Z,97647.28
2023-05-13T07:16:47.126Z,97650.66
2023-05-13T07:19:18.602Z,97653.97
2023-05-13T07:21:50.022Z,97655.63
2023-05-13T07:24:18.279Z,97662.97
2023-05-13T07:26:53.440Z,97654.97
2023-05-13T07:29:21.751Z,97658.13
2023-05-13T07:31:52.689Z,97663.13
2023-05-13T07:34:21.236Z,97666.13
2023-05-13T07:36:54.882Z,97660.97
2023-05-13T07:39:23.192Z,97664.13
2023-05-13T07:41:52.878Z,97670.66
2023-05-13T07:44:21.238Z,97665.31
2023-05-13T07:46:51.584Z,97671.00
2023-05-13T07:49:19.947Z,97661.97
2023-05-13T07:51:48.349Z,97663.50
2023-05-13T07:54:16.631Z,97667.81
2023-05-13T07:56:48.070Z,97669.47
2023-05-13T07:59:17.764Z,97669.31
2023-05-13T08:01:46.108Z,97675.31
2023-05-13T08:04:14.495Z,97674.97
2023-05-13T08:06:48.877Z,97667.16
2023-05-13T08:11:51.716Z,97669.97
2023-05-13T08:14:21.704Z,97672.47
2023-05-13T08:16:50.227Z,97669.66
2023-05-13T08:19:18.751Z,97674.97
2023-05-13T08:21:47.065Z,97683.47
2023-05-13T08:24:18.253Z,97681.81
2023-05-13T08:26:47.246Z,97685.13
2023-05-13T08:29:15.794Z,97685.13
2023-05-13T08:31:48.555Z,97681.31
2023-05-13T08:34:17.030Z,97682.97
2023-05-13T08:36:45.401Z,97681.81
2023-05-13T08:39:13.766Z,97686.16
2023-05-13T08:41:43.619Z,97687.81
2023-05-13T08:44:14.374Z,97686.81
2023-05-13T08:46:50.745Z,97684.13
2023-05-13T08:49:19.162Z,97683.00
2023-05-13T08:51:47.500Z,97680.78
2023-05-13T08:54:17.596Z,97687.63
2023-05-13T08:56:45.856Z,97687.13
2023-05-13T08:59:14.152Z,97684.75
2023-05-13T09:01:42.505Z,97688.75
2023-05-13T09:04:12.478Z,97685.53
2023-05-13T09:06:40.796Z,97686.03
2023-05-13T09:09:09.884Z,97686.19
2023-05-13T09:11:41.497Z,97682.81
2023-05-13T09:14:12.221Z,97673.44
2023-05-13T09:16:44.010Z,97673.59
2023-05-13T09:19:13.955Z,97669.69
2023-05-13T09:21:42.397Z,97664.78
2023-05-13T09:24:13.332Z,97666.78
2023-05-13T09:26:43.312Z,97671.91
2023-05-13T09:29:23.573Z,97674.69
2023-05-13T09:31:54.904Z,97664.81
2023-05-13T09:34:30.203Z,97673.66
2023-05-13T09:37:04.024Z,97664.56
2023-05-13T09:39:34.373Z,97660.00
2023-05-13T09:42:05.362Z,97656.72
2023-05-13T09:44:37.884Z,97654.97
2023-05-13T09:47:06.590Z,97655.38
2023-05-13T09:49:36.540Z,97660.00
2023-05-13T09:52:10.108Z,97645.53
2023-05-13T09:54:38.724Z,97643.06
2023-05-13T09:57:07.932Z,97635.97
2023-05-13T09:59:36.806Z,97639.84
2023-05-13T10:02:10.276Z,97633.69
2023-05-13T10:04:40.673Z,97635.03
2023-05-13T10:07:10.260Z,97635.59
2023-05-13T10:09:40.190Z,97636.69
2023-05-13T10:12:19.084Z,97638.41
2023-05-13T10:14:49.747Z,97642.00
2023-05-13T10:17:19.947Z,97649.28
2023-05-13T10:19:51.338Z,97647.06
2023-05-13T10:22:31.178Z,97645.41
2023-05-13T10:25:04.035Z,97645.22
2023-05-13T10:27:34.419Z,97644.19
2023-05-13T10:30:05.886Z,97643.16
2023-05-13T10:32:41.134Z,97638.00
2023-05-13T10:35:15.138Z,97639.88
2023-05-13T10:38:02.884Z,97637.75
2023-05-13T10:40:57.811Z,97626.84
2023-05-13T10:43:32.691Z,97627.41
2023-05-13T10:46:03.338Z,97632.00
2023-05-13T10:48:41.735Z,97621.50
2023-05-13T10:51:16.528Z,97627.97
2023-05-13T10:53:48.750Z,97629.25
2023-05-13T10:56:17.804Z,97623.50
2023-05-13T10:59:00.048Z,97621.91
2023-05-13T11:01:31.025Z,97629.38
2023-05-13T11:04:02.405Z,97623.44
2023-05-13T11:06:37.130Z,97620.84
2023-05-13T11:09:07.917Z,97616.78
2023-05-13T11:11:39.888Z,97619.78
2023-05-13T11:14:16.442Z,97626.47
2023-05-13T11:16:50.360Z,97621.38
2023-05-13T11:19:24.235Z,97622.88
2023-05-13T11:21:56.699Z,97630.13
2023-05-13T11:24:28.190Z,97629.56
2023-05-13T11:26:59.308Z,97632.50
2023-05-13T11:29:32.789Z,97631.66
2023-05-13T11:32:03.480Z,97627.97
2023-05-13T11:34:32.820Z,97636.28
2023-05-13T11:37:11.842Z,97633.59
2023-05-13T11:39:42.276Z,97638.78
2023-05-13T11:42:12.192Z,97638.56
2023-05-13T11:44:48.682Z,97636.28
2023-05-13T11:47:27.193Z,97639.41
2023-05-13T11:49:55.925Z,97637.31
2023-05-13T11:52:25.926Z,97640.00
2023-05-13T11:54:56.310Z,97641.00
2023-05-13T11:57:26.421Z,97642.88
2023-05-13T12:00:00.718Z,97639.13
2023-05-13T12:02:31.123Z,97637.91
2023-05-13T12:05:04.482Z,97637.72
2023-05-13T12:07:35.538Z,97626.78
2023-05-13T12:10:06.516Z,97637.53
2023-05-13T12:12:39.388Z,97634.06
2023-05-13T12:15:11.649Z,97630.63
2023-05-13T12:17:40.625Z,97626.97
2023-05-13T12:20:14.262Z,97628.66
2023-05-13T12:22:57.667Z,97619.63
2023-05-13T12:25:41.519Z,97625.66
2023-05-13T12:28:13.273Z,97628.56
2023-05-13T12:31:01.097Z,97630.63
2023-05-13T12:33:32.380Z,97634.34
2023-05-13T12:36:21.215Z,97633.53
2023-05-13T12:39:00.639Z,97628.38
2023-05-13T12:41:31.273Z,97632.09
2023-05-13T12:44:01.310Z,97627.34
2023-05-13T12:46:30.233Z,97624.88
2023-05-13T12:49:00.191Z,97623.84
2023-05-13T12:51:30.490Z,97629.44
2023-05-13T12:54:00.974Z,97628.22
2023-05-13T12:56:29.554Z,97618.94
2023-05-13T12:58:58.116Z,97625.34
2023-05-13T13:01:26.514Z,97621.00
2023-05-13T13:03:55.013Z,97609.03
2023-05-13T13:06:23.618Z,97611.75
2023-05-13T13:08:52.264Z,97611.16
2023-05-13T13:11:22.093Z,97605.38
2023-05-13T13:13:51.274Z,97606.00
2023-05-13T13:16:19.826Z,97606.19
2023-05-13T13:18:51.008Z,97601.47
2023-05-13T13:21:20.893Z,97610.13
2023-05-13T13:23:49.295Z,97603.28
2023-05-13T13:26:17.669Z,97598.34
2023-05-13T13:28:47.528Z,97607.47
2023-05-13T13:31:15.949Z,97593.97
2023-05-13T13:33:44.309Z,97592.06
2023-05-13T13:36:12.884Z,97587.88
2023-05-13T13:38:41.212Z,97595.53
2023-05-13T13:41:09.653Z,97589.94
2023-05-13T13:43:38.799Z,97591.72
2023-05-13T13:46:08.772Z,97589.00
2023-05-13T13:48:37.193Z,97590.22
2023-05-13T13:51:06.162Z,97583.56
2023-05-13T13:53:34.558Z,97588.34
2023-05-13T13:56:06.055Z,97577.97
2023-05-13T13:58:34.540Z,97583.56
2023-05-13T14:01:02.930Z,97589.53
2023-05-13T14:03:32.989Z,97577.72
2023-05-13T14:06:01.643Z,97578.53
2023-05-13T14:08:29.954Z,97581.03
2023-05-13T14:10:58.855Z,97577.13
2023-05-13T14:13:27.701Z,97574.41
2023-05-13T14:15:56.172Z,97577.31
2023-05-13T14:18:24.555Z,97577.31
2023-05-13T14:20:54.396Z,97573.56
2023-05-13T14:23:22.720Z,97573.13
2023-05-13T14:25:53.940Z,97565.44
2023-05-13T14:28:23.777Z,97570.81
2023-05-13T14:30:53.458Z,97569.78
2023-05-13T14:33:21.835Z,97572.25
2023-05-13T14:35:50.199Z,97578.69
2023-05-13T14:38:20.718Z,97574.16
2023-05-13T14:40:51.720Z,97572.13
2023-05-13T14:43:20.127Z,97571.72
2023-05-13T14:46:02.614Z,97568.84
2023-05-13T14:48:31.013Z,97566.78
2023-05-13T14:50:59.369Z,97559.75
2023-05-13T14:53:29.555Z,97564.47
2023-05-13T14:55:59.684Z,97558.94
2023-05-13T14:58:28.131Z,97556.63
2023-05-13T15:01:02.168Z,97553.31
2023-05-13T15:03:30.682Z,97553.75
2023-05-13T15:05:59.188Z,97555.63
2023-05-13T15:08:29.095Z,97561.50
2023-05-13T15:10:57.502Z,97557.13
2023-05-13T15:13:27.281Z,97551.78
2023-05-13T15:15:56.603Z,97546.41
2023-05-13T15:18:24.939Z,97541.44
2023-05-13T15:20:53.317Z,97547.06
2023-05-13T15:23:21.743Z,97544.38
2023-05-13T15:25:57.481Z,97542.53
2023-05-13T15:28:25.828Z,97545.44
2023-05-13T15:30:54.274Z,97541.50
2023-05-13T15:33:22.704Z,97542.31
2023-05-13T15:35:53.719Z,97545.63
2023-05-13T15:38:22.041Z,97539.41
2023-05-13T15:40:50.566Z,97534.22
2023-05-13T15:43:20.231Z,97534.66
2023-05-13T15:45:49.793Z,97539.41
2023-05-13T15:48:18.408Z,97534.00
2023-05-13T15:50:46.814Z,97537.91
2023-05-13T15:53:15.160Z,97538.94
2023-05-13T15:55:43.581Z,97530.22
2023-05-13T15:58:12.018Z,97537.88
2023-05-13T16:00:41.717Z,97535.56
2023-05-13T16:03:10.198Z,97530.16
2023-05-13T16:05:38.818Z,97532.88
2023-05-13T16:08:07.218Z,97524.78
2023-05-13T16:10:35.902Z,97531.00
2023-05-13T16:13:04.351Z,97526.47
2023-05-13T16:15:32.806Z,97527.66
2023-05-13T16:18:02.549Z,97526.84
2023-05-13T16:20:30.957Z,97524.75
2023-05-13T16:22:59.312Z,97525.13
2023-05-13T16:25:27.838Z,97520.16
2023-05-13T16:27:56.712Z,97521.16
2023-05-13T16:30:25.245Z,97526.13
2023-05-13T16:32:54.522Z,97517.81
2023-05-13T16:35:24.647Z,97518.88
2023-05-13T16:37:53.031Z,97519.72
2023-05-13T16:40:21.587Z,97521.97
2023-05-13T16:42:58.844Z,97525.47
2023-05-13T16:45:28.262Z,97520.31
2023-05-13T16:47:56.995Z,97536.88
2023-05-13T16:50:27.996Z,97553.28
2023-05-13T16:52:57.044Z,97569.69
2023-05-13T16:55:26.149Z,97559.94
2023-05-13T16:57:54.630Z,97564.78
2023-05-13T17:00:23.664Z,97562.97
2023-05-13T17:02:52.404Z,97565.13
2023-05-13T17:05:20.874Z,97573.41
2023-05-13T17:07:51.175Z,97574.50
2023-05-13T17:10:19.613Z,97574.31
2023-05-13T17:12:48.057Z,97566.84
2023-05-13T17:15:16.634Z,97567.28
2023-05-13T17:17:45.182Z,97570.41
2023-05-13T17:20:14.489Z,97577.88
2023-05-13T17:22:45.402Z,97579.31
2023-05-13T17:25:15.400Z,97584.03
2023-05-13T17:27:43.803Z,97569.34
2023-05-13T17:30:13.620Z,97579.66
2023-05-13T17:32:42.108Z,97581.91
2023-05-13T17:35:11.473Z,97583.31
2023-05-13T17:37:39.998Z,97588.28
2023-05-13T17:40:10.434Z,97590.31
2023-05-13T17:42:40.293Z,97583.25
2023-05-13T17:45:10.470Z,97580.53
2023-05-13T17:47:39.094Z,97590.00
2023-05-13T17:50:08.995Z,97585.63
2023-05-13T17:52:37.432Z,97590.97
2023-05-13T17:55:07.286Z,97598.16
2023-05-13T17:57:35.716Z,97594.63
2023-05-13T18:00:07.151Z,97596.47
2023-05-13T18:02:36.226Z,97599.94
2023-05-13T18:05:04.774Z,97591.84
2023-05-13T18:07:33.210Z,97593.47
2023-05-13T18:10:01.655Z,97594.88
2023-05-13T18:12:30.617Z,97596.50
2023-05-13T18:14:59.150Z,97602.84
2023-05-13T18:17:29.039Z,97605.66
2023-05-13T18:19:57.573Z,97611.59
2023-05-13T18:22:26.200Z,97615.66
2023-05-13T18:24:54.537Z,97613.16
2023-05-13T18:27:22.954Z,97618.72
2023-05-13T18:29:51.395Z,97623.34
2023-05-13T18:32:19.890Z,97616.28
2023-05-13T18:34:49.670Z,97618.72
2023-05-13T18:37:18.519Z,97620.13
2023-05-13T18:39:46.941Z,97621.91
2023-05-13T18:42:15.420Z,97622.94
2023-05-13T18:44:43.826Z,97624.16
2023-05-13T18:47:12.366Z,97624.53
2023-05-13T18:49:40.992Z,97628.41
2023-05-13T18:52:10.864Z,97633.53
2023-05-13T18:54:39.681Z,97638.25
2023-05-13T18:57:08.208Z,97635.94
2023-05-13T18:59:36.722Z,97635.47
2023-05-13T19:02:05.515Z,97639.38
2023-05-13T19:04:34.294Z,97642.25
2023-05-13T19:07:02.979Z,97644.44
2023-05-13T19:09:34.126Z,97653.88
2023-05-13T19:12:02.593Z,97652.59
2023-05-13T19:14:31.053Z,97646.78
2023-05-13T19:16:59.615Z,97654.38
2023-05-13T19:19:28.099Z,97648.75
2023-05-13T19:21:56.614Z,97653.66
2023-05-13T19:24:25.180Z,97644.53
2023-05-13T19:26:55.131Z,97657.44
2023-05-13T19:29:23.601Z,97659.03
2023-05-13T19:31:51.959Z,97657.75
2023-05-13T19:34:20.454Z,97661.34
2023-05-13T19:36:49.028Z,97668.72
2023-05-13T19:39:17.472Z,97666.59
2023-05-13T19:41:47.285Z,97666.97
2023-05-13T19:44:17.011Z,97672.25
2023-05-13T19:46:45.643Z,97671.59
2023-05-13T19:49:14.072Z,97676.66
2023-05-13T19:51:42.461Z,97674.53
2023-05-13T19:54:11.886Z,97672.41
2023-05-13T19:56:42.634Z,97673.78
2023-05-13T19:59:11.273Z,97678.81
2023-05-13T20:01:41.236Z,97677.72
2023-05-13T20:04:10.668Z,97683.44
2023-05-13T20:06:39.124Z,97681.97
2023-05-13T20:09:07.491Z,97678.81
2023-05-13T20:11:35.871Z,97684.34
2023-05-13T20:14:04.386Z,97679.34
2023-05-13T20:16:32.913Z,97687.56
2023-05-13T20:19:02.813Z,97673.56
2023-05-13T20:21:31.329Z,97678.06
2023-05-13T20:23:59.795Z,97680.91
2023-05-13T20:26:28.438Z,97673.25
2023-05-13T20:28:58.663Z,97678.59
2023-05-13T20:31:29.673Z,97666.63
2023-05-13T20:33:58.683Z,97671.78
2023-05-13T20:36:28.539Z,97666.81
2023-05-13T20:38:57.083Z,97668.44
2023-05-13T20:41:25.654Z,97663.28
2023-05-13T20:43:53.999Z,97668.81
2023-05-13T20:46:23.428Z,97659.31
2023-05-13T20:48:51.930Z,97662.16
2023-05-13T20:51:20.518Z,97659.69
2023-05-13T20:53:50.624Z,97653.84
2023-05-13T20:56:19.177Z,97655.06
2023-05-13T20:58:47.640Z,97651.72
2023-05-13T21:01:16.181Z,97653.09
2023-05-13T21:03:44.671Z,97657.16
2023-05-13T21:06:13.204Z,97657.50
2023-05-13T21:08:41.672Z,97659.88
2023-05-13T21:11:11.831Z,97648.69
2023-05-13T21:13:40.453Z,97654.41
2023-05-13T21:16:09.047Z,97652.28
2023-05-13T21:18:37.782Z,97650.31
2023-05-13T21:21:12.282Z,97649.16
2023-05-13T21:23:43.088Z,97642.34
2023-05-13T21:26:13.310Z,97647.38
2023-05-13T21:28:42.276Z,97646.88
2023-05-13T21:31:10.708Z,97640.25
2023-05-13T21:33:39.197Z,97639.97
2023-05-13T21:36:08.659Z,97632.47
2023-05-13T21:38:37.180Z,97631.16
2023-05-13T21:41:05.681Z,97640.53
2023-05-13T21:43:35.522Z,97637.38
2023-05-13T21:46:06.551Z,97633.41
2023-05-13T21:48:35.097Z,97640.75
2023-05-13T21:51:03.630Z,97638.41
2023-05-13T21:53:32.019Z,97635.13
2023-05-13T21:56:00.548Z,97641.63
2023-05-13T21:58:29.323Z,97636.00
2023-05-13T22:01:00.287Z,97626.47
2023-05-13T22:03:29.091Z,97622.66
2023-05-13T22:06:00.615Z,97621.72
2023-05-13T22:08:29.181Z,97621.03
2023-05-13T22:10:57.738Z,97617.91
2023-05-13T22:13:27.121Z,97623.09
2023-05-13T22:15:55.597Z,97617.28
2023-05-13T22:18:25.831Z,97614.63
2023-05-13T22:20:54.476Z,97617.47
2023-05-13T22:23:22.947Z,97618.97
2023-05-13T22:25:51.412Z,97611.66
2023-05-13T22:28:19.915Z,97612.03
2023-05-13T22:30:59.362Z,97613.34
2023-05-13T22:33:29.218Z,97611.38
2023-05-13T22:35:57.630Z,97617.72
2023-05-13T22:38:26.362Z,97616.56
2023-05-13T22:40:54.859Z,97614.25
2023-05-13T22:43:23.441Z,97618.22
2023-05-13T22:45:52.128Z,97623.91
2023-05-13T22:48:20.638Z,97620.94
2023-05-13T22:50:50.694Z,97618.59
2023-05-13T22:53:19.149Z,97616.44
2023-05-13T22:55:47.626Z,97623.94
2023-05-13T22:58:16.354Z,97618.31
2023-05-13T23:00:45.030Z,97616.78
2023-05-13T23:03:13.511Z,97620.63
2023-05-13T23:05:42.108Z,97616.66
2023-05-13T23:08:11.936Z,97616.97
2023-05-13T23:10:44.035Z,97612.16
2023-05-13T23:13:12.526Z,97618.63
2023-05-13T23:15:41.160Z,97615.31
2023-05-13T23:18:09.580Z,97613.00
2023-05-13T23:20:40.663Z,97603.50
2023-05-13T23:23:11.894Z,97604.66
2023-05-13T23:25:41.539Z,97607.66
2023-05-13T23:28:09.901Z,97602.63
2023-05-13T23:30:41.247Z,97607.28
2023-05-13T23:33:10.132Z,97601.16
2023-05-13T23:35:38.454Z,97602.13
2023-05-13T23:38:06.798Z,97602.28
2023-05-13T23:40:35.178Z,97594.84
2023-05-13T23:43:04.971Z,97600.16
2023-05-13T23:45:33.338Z,97597.66
2023-05-13T23:48:01.924Z,97592.50
2023-05-13T23:50:30.268Z,97600.50
2023-05-13T23:52:58.820Z,97582.00
2023-05-13T23:55:27.118Z,97582.19
2023-05-13T23:57:56.053Z,97582.19
